sensor_id;sensor_type;location;lat;lon;timestamp;temperature;humidity
21592;DHT22;10958;50.892;3.992;2023-12-20T00:01:17;6.30;99.90
21592;DHT22;10958;50.892;3.992;2023-12-20T00:03:45;6.30;99.90
21592;DHT22;10958;50.892;3.992;2023-12-20T00:06:13;6.20;99.90
21592;DHT22;10958;50.892;3.992;2023-12-20T00:08:39;6.20;99.90
21592;DHT22;10958;50.892;3.992;2023-12-20T00:11:04;6.10;99.90
21592;DHT22;10958;50.892;3.992;2023-12-20T00:13:30;6.30;99.90
21592;DHT22;10958;50.892;3.992;2023-12-20T00:15:56;6.30;99.90
21592;DHT22;10958;50.892;3.992;2023-12-20T00:18:21;6.40;99.90
21592;DHT22;10958;50.892;3.992;2023-12-20T00:20:47;6.30;99.90
21592;DHT22;10958;50.892;3.992;2023-12-20T00:23:13;6.50;99.90
21592;DHT22;10958;50.892;3.992;2023-12-20T00:25:38;6.50;99.90
21592;DHT22;10958;50.892;3.992;2023-12-20T00:28:04;6.50;99.90
21592;DHT22;10958;50.892;3.992;2023-12-20T00:30:29;6.60;99.90
21592;DHT22;10958;50.892;3.992;2023-12-20T00:32:56;6.50;99.90
21592;DHT22;10958;50.892;3.992;2023-12-20T00:35:23;6.50;99.90
21592;DHT22;10958;50.892;3.992;2023-12-20T00:37:50;6.50;99.90
21592;DHT22;10958;50.892;3.992;2023-12-20T00:40:15;6.60;99.90
21592;DHT22;10958;50.892;3.992;2023-12-20T00:42:41;6.70;99.90
21592;DHT22;10958;50.892;3.992;2023-12-20T00:45:07;6.70;99.90
21592;DHT22;10958;50.892;3.992;2023-12-20T00:47:36;6.60;99.90
21592;DHT22;10958;50.892;3.992;2023-12-20T00:50:02;6.60;99.90
21592;DHT22;10958;50.892;3.992;2023-12-20T00:52:28;6.70;99.90
21592;DHT22;10958;50.892;3.992;2023-12-20T00:54:56;6.70;99.90
21592;DHT22;10958;50.892;3.992;2023-12-20T00:57:22;6.60;99.90
21592;DHT22;10958;50.892;3.992;2023-12-20T00:59:48;6.80;99.90
21592;DHT22;10958;50.892;3.992;2023-12-20T01:02:16;6.80;99.90
21592;DHT22;10958;50.892;3.992;2023-12-20T01:04:42;6.60;99.90
21592;DHT22;10958;50.892;3.992;2023-12-20T01:07:08;6.50;99.90
21592;DHT22;10958;50.892;3.992;2023-12-20T01:09:34;6.60;99.90
21592;DHT22;10958;50.892;3.992;2023-12-20T01:11:59;6.50;99.90
21592;DHT22;10958;50.892;3.992;2023-12-20T01:14:27;6.50;99.90
21592;DHT22;10958;50.892;3.992;2023-12-20T01:16:53;6.60;99.90
21592;DHT22;10958;50.892;3.992;2023-12-20T01:19:21;6.60;99.90
21592;DHT22;10958;50.892;3.992;2023-12-20T01:21:47;6.50;99.90
21592;DHT22;10958;50.892;3.992;2023-12-20T01:24:12;6.30;99.90
21592;DHT22;10958;50.892;3.992;2023-12-20T01:26:38;6.30;99.90
21592;DHT22;10958;50.892;3.992;2023-12-20T01:29:03;6.30;99.90
21592;DHT22;10958;50.892;3.992;2023-12-20T01:31:31;6.40;99.90
21592;DHT22;10958;50.892;3.992;2023-12-20T01:33:57;6.40;99.90
21592;DHT22;10958;50.892;3.992;2023-12-20T01:36:22;6.40;99.90
21592;DHT22;10958;50.892;3.992;2023-12-20T01:38:48;6.50;99.90
21592;DHT22;10958;50.892;3.992;2023-12-20T01:41:14;6.50;99.90
21592;DHT22;10958;50.892;3.992;2023-12-20T01:43:43;6.50;99.90
21592;DHT22;10958;50.892;3.992;2023-12-20T01:46:13;6.40;99.90
21592;DHT22;10958;50.892;3.992;2023-12-20T01:48:40;6.50;99.90
21592;DHT22;10958;50.892;3.992;2023-12-20T01:51:06;6.40;99.90
21592;DHT22;10958;50.892;3.992;2023-12-20T01:53:32;6.50;99.90
21592;DHT22;10958;50.892;3.992;2023-12-20T01:55:58;6.50;99.90
21592;DHT22;10958;50.892;3.992;2023-12-20T01:58:25;6.60;99.90
21592;DHT22;10958;50.892;3.992;2023-12-20T02:00:51;6.60;99.90
21592;DHT22;10958;50.892;3.992;2023-12-20T02:03:19;6.70;99.90
21592;DHT22;10958;50.892;3.992;2023-12-20T02:05:47;6.60;99.90
21592;DHT22;10958;50.892;3.992;2023-12-20T02:08:13;6.60;99.90
21592;DHT22;10958;50.892;3.992;2023-12-20T02:10:39;6.60;99.90
21592;DHT22;10958;50.892;3.992;2023-12-20T02:13:08;6.70;99.90
21592;DHT22;10958;50.892;3.992;2023-12-20T02:15:34;6.70;99.90
21592;DHT22;10958;50.892;3.992;2023-12-20T02:18:02;6.70;99.90
21592;DHT22;10958;50.892;3.992;2023-12-20T02:20:28;6.70;99.90
21592;DHT22;10958;50.892;3.992;2023-12-20T02:22:53;6.70;99.90
21592;DHT22;10958;50.892;3.992;2023-12-20T02:25:19;6.70;99.90
21592;DHT22;10958;50.892;3.992;2023-12-20T02:27:44;6.60;99.90
21592;DHT22;10958;50.892;3.992;2023-12-20T02:30:12;6.60;99.90
21592;DHT22;10958;50.892;3.992;2023-12-20T02:32:38;6.60;99.90
21592;DHT22;10958;50.892;3.992;2023-12-20T02:35:04;6.60;99.90
21592;DHT22;10958;50.892;3.992;2023-12-20T02:37:30;6.60;99.90
21592;DHT22;10958;50.892;3.992;2023-12-20T02:39:55;6.60;99.90
21592;DHT22;10958;50.892;3.992;2023-12-20T02:42:21;6.50;99.90
21592;DHT22;10958;50.892;3.992;2023-12-20T02:44:46;6.60;99.90
21592;DHT22;10958;50.892;3.992;2023-12-20T02:47:12;6.60;99.90
21592;DHT22;10958;50.892;3.992;2023-12-20T02:49:40;6.60;99.90
21592;DHT22;10958;50.892;3.992;2023-12-20T02:52:05;6.70;99.90
21592;DHT22;10958;50.892;3.992;2023-12-20T02:54:33;6.70;99.90
21592;DHT22;10958;50.892;3.992;2023-12-20T02:56:59;6.80;99.90
21592;DHT22;10958;50.892;3.992;2023-12-20T02:59:25;6.80;99.90
21592;DHT22;10958;50.892;3.992;2023-12-20T03:01:50;6.80;99.90
21592;DHT22;10958;50.892;3.992;2023-12-20T03:04:16;6.80;99.90
21592;DHT22;10958;50.892;3.992;2023-12-20T03:06:46;6.80;99.90
21592;DHT22;10958;50.892;3.992;2023-12-20T03:09:12;6.90;99.90
21592;DHT22;10958;50.892;3.992;2023-12-20T03:11:37;6.90;99.90
21592;DHT22;10958;50.892;3.992;2023-12-20T03:14:03;6.90;99.90
21592;DHT22;10958;50.892;3.992;2023-12-20T03:16:28;6.90;99.90
21592;DHT22;10958;50.892;3.992;2023-12-20T03:18:54;7.00;99.90
21592;DHT22;10958;50.892;3.992;2023-12-20T03:21:20;7.00;99.90
21592;DHT22;10958;50.892;3.992;2023-12-20T03:23:48;7.00;99.90
21592;DHT22;10958;50.892;3.992;2023-12-20T03:26:13;6.90;99.90
21592;DHT22;10958;50.892;3.992;2023-12-20T03:28:39;6.90;99.90
21592;DHT22;10958;50.892;3.992;2023-12-20T03:31:05;6.90;99.90
21592;DHT22;10958;50.892;3.992;2023-12-20T03:33:31;6.80;99.90
21592;DHT22;10958;50.892;3.992;2023-12-20T03:35:56;6.80;99.90
21592;DHT22;10958;50.892;3.992;2023-12-20T03:38:22;6.80;99.90
21592;DHT22;10958;50.892;3.992;2023-12-20T03:40:50;6.80;99.90
21592;DHT22;10958;50.892;3.992;2023-12-20T03:43:16;6.80;99.90
21592;DHT22;10958;50.892;3.992;2023-12-20T03:45:42;6.80;99.90
21592;DHT22;10958;50.892;3.992;2023-12-20T03:48:08;6.80;99.90
21592;DHT22;10958;50.892;3.992;2023-12-20T03:50:34;6.80;99.90
21592;DHT22;10958;50.892;3.992;2023-12-20T03:53:00;6.80;99.90
21592;DHT22;10958;50.892;3.992;2023-12-20T03:55:28;6.70;99.90
21592;DHT22;10958;50.892;3.992;2023-12-20T03:57:54;6.70;99.90
21592;DHT22;10958;50.892;3.992;2023-12-20T04:00:20;6.50;99.90
21592;DHT22;10958;50.892;3.992;2023-12-20T04:02:45;6.40;99.90
21592;DHT22;10958;50.892;3.992;2023-12-20T04:05:11;6.40;99.90
21592;DHT22;10958;50.892;3.992;2023-12-20T04:07:37;6.40;99.90
21592;DHT22;10958;50.892;3.992;2023-12-20T04:10:03;6.40;99.90
21592;DHT22;10958;50.892;3.992;2023-12-20T04:12:32;6.50;99.90
21592;DHT22;10958;50.892;3.992;2023-12-20T04:14:58;6.40;99.90
21592;DHT22;10958;50.892;3.992;2023-12-20T04:17:23;6.40;99.90
21592;DHT22;10958;50.892;3.992;2023-12-20T04:19:50;6.50;99.90
21592;DHT22;10958;50.892;3.992;2023-12-20T04:22:17;6.40;99.90
21592;DHT22;10958;50.892;3.992;2023-12-20T04:24:43;6.50;99.90
21592;DHT22;10958;50.892;3.992;2023-12-20T04:27:08;6.40;99.90
21592;DHT22;10958;50.892;3.992;2023-12-20T04:29:37;6.50;99.90
21592;DHT22;10958;50.892;3.992;2023-12-20T04:32:03;6.40;99.90
21592;DHT22;10958;50.892;3.992;2023-12-20T04:34:28;6.50;99.90
21592;DHT22;10958;50.892;3.992;2023-12-20T04:36:54;6.60;99.90
21592;DHT22;10958;50.892;3.992;2023-12-20T04:39:20;6.50;99.90
21592;DHT22;10958;50.892;3.992;2023-12-20T04:41:46;6.50;99.90
21592;DHT22;10958;50.892;3.992;2023-12-20T04:44:13;6.50;99.90
21592;DHT22;10958;50.892;3.992;2023-12-20T04:46:39;6.50;99.90
21592;DHT22;10958;50.892;3.992;2023-12-20T04:49:04;6.50;99.90
21592;DHT22;10958;50.892;3.992;2023-12-20T04:51:33;6.40;99.90
21592;DHT22;10958;50.892;3.992;2023-12-20T04:53:59;6.40;99.90
21592;DHT22;10958;50.892;3.992;2023-12-20T04:56:24;6.40;99.90
21592;DHT22;10958;50.892;3.992;2023-12-20T04:58:50;6.40;99.90
21592;DHT22;10958;50.892;3.992;2023-12-20T05:01:16;6.30;99.90
21592;DHT22;10958;50.892;3.992;2023-12-20T05:03:44;6.30;99.90
21592;DHT22;10958;50.892;3.992;2023-12-20T05:06:10;6.30;99.90
21592;DHT22;10958;50.892;3.992;2023-12-20T05:08:35;6.00;99.90
21592;DHT22;10958;50.892;3.992;2023-12-20T05:11:04;6.10;99.90
21592;DHT22;10958;50.892;3.992;2023-12-20T05:13:30;6.00;99.90
21592;DHT22;10958;50.892;3.992;2023-12-20T05:15:58;6.10;99.90
21592;DHT22;10958;50.892;3.992;2023-12-20T05:18:24;6.00;99.90
21592;DHT22;10958;50.892;3.992;2023-12-20T05:20:50;6.00;99.90
21592;DHT22;10958;50.892;3.992;2023-12-20T05:23:17;5.90;99.90
21592;DHT22;10958;50.892;3.992;2023-12-20T05:25:42;6.00;99.90
21592;DHT22;10958;50.892;3.992;2023-12-20T05:28:08;5.90;99.90
21592;DHT22;10958;50.892;3.992;2023-12-20T05:30:34;5.90;99.90
21592;DHT22;10958;50.892;3.992;2023-12-20T05:32:59;5.90;99.90
21592;DHT22;10958;50.892;3.992;2023-12-20T05:35:25;5.90;99.90
21592;DHT22;10958;50.892;3.992;2023-12-20T05:37:51;5.90;99.90
21592;DHT22;10958;50.892;3.992;2023-12-20T05:40:16;5.70;99.90
21592;DHT22;10958;50.892;3.992;2023-12-20T05:42:42;5.70;99.90
21592;DHT22;10958;50.892;3.992;2023-12-20T05:45:11;5.70;99.90
21592;DHT22;10958;50.892;3.992;2023-12-20T05:47:37;5.80;99.90
21592;DHT22;10958;50.892;3.992;2023-12-20T05:50:05;5.80;99.90
21592;DHT22;10958;50.892;3.992;2023-12-20T05:52:30;5.60;99.90
21592;DHT22;10958;50.892;3.992;2023-12-20T05:54:56;5.70;99.90
21592;DHT22;10958;50.892;3.992;2023-12-20T05:57:23;5.70;99.90
21592;DHT22;10958;50.892;3.992;2023-12-20T05:59:53;5.80;99.90
21592;DHT22;10958;50.892;3.992;2023-12-20T06:02:19;5.80;99.90
21592;DHT22;10958;50.892;3.992;2023-12-20T06:04:45;5.90;99.90
21592;DHT22;10958;50.892;3.992;2023-12-20T06:07:15;5.90;99.90
21592;DHT22;10958;50.892;3.992;2023-12-20T06:09:40;6.00;99.90
21592;DHT22;10958;50.892;3.992;2023-12-20T06:12:07;6.10;99.90
21592;DHT22;10958;50.892;3.992;2023-12-20T06:14:34;6.10;99.90
21592;DHT22;10958;50.892;3.992;2023-12-20T06:17:00;6.20;99.90
21592;DHT22;10958;50.892;3.992;2023-12-20T06:19:26;6.10;99.90
21592;DHT22;10958;50.892;3.992;2023-12-20T06:21:54;6.10;99.90
21592;DHT22;10958;50.892;3.992;2023-12-20T06:24:20;6.10;99.90
21592;DHT22;10958;50.892;3.992;2023-12-20T06:26:49;6.10;99.90
21592;DHT22;10958;50.892;3.992;2023-12-20T06:29:19;6.10;99.90
21592;DHT22;10958;50.892;3.992;2023-12-20T06:31:45;6.00;99.90
21592;DHT22;10958;50.892;3.992;2023-12-20T06:34:10;5.90;99.90
21592;DHT22;10958;50.892;3.992;2023-12-20T06:36:38;6.00;99.90
21592;DHT22;10958;50.892;3.992;2023-12-20T06:39:04;6.00;99.90
21592;DHT22;10958;50.892;3.992;2023-12-20T06:41:30;6.00;99.90
21592;DHT22;10958;50.892;3.992;2023-12-20T06:43:56;6.00;99.90
21592;DHT22;10958;50.892;3.992;2023-12-20T06:46:22;5.90;99.90
21592;DHT22;10958;50.892;3.992;2023-12-20T06:48:47;6.00;99.90
21592;DHT22;10958;50.892;3.992;2023-12-20T06:51:15;5.90;99.90
21592;DHT22;10958;50.892;3.992;2023-12-20T06:53:41;5.90;99.90
21592;DHT22;10958;50.892;3.992;2023-12-20T06:56:07;5.90;99.90
21592;DHT22;10958;50.892;3.992;2023-12-20T06:58:34;5.90;99.90
21592;DHT22;10958;50.892;3.992;2023-12-20T07:01:00;5.80;99.90
21592;DHT22;10958;50.892;3.992;2023-12-20T07:03:28;5.70;99.90
21592;DHT22;10958;50.892;3.992;2023-12-20T07:05:54;5.70;99.90
21592;DHT22;10958;50.892;3.992;2023-12-20T07:08:20;5.70;99.90
21592;DHT22;10958;50.892;3.992;2023-12-20T07:10:45;5.70;99.90
21592;DHT22;10958;50.892;3.992;2023-12-20T07:13:13;5.70;99.90
21592;DHT22;10958;50.892;3.992;2023-12-20T07:15:39;5.70;99.90
21592;DHT22;10958;50.892;3.992;2023-12-20T07:18:05;5.80;99.90
21592;DHT22;10958;50.892;3.992;2023-12-20T07:20:31;5.80;99.90
21592;DHT22;10958;50.892;3.992;2023-12-20T07:22:57;5.80;99.90
21592;DHT22;10958;50.892;3.992;2023-12-20T07:25:25;5.90;99.90
21592;DHT22;10958;50.892;3.992;2023-12-20T07:27:51;5.80;99.90
21592;DHT22;10958;50.892;3.992;2023-12-20T07:30:17;5.80;99.90
21592;DHT22;10958;50.892;3.992;2023-12-20T07:32:42;5.90;99.90
21592;DHT22;10958;50.892;3.992;2023-12-20T07:35:08;5.90;99.90
21592;DHT22;10958;50.892;3.992;2023-12-20T07:37:36;5.90;99.90
21592;DHT22;10958;50.892;3.992;2023-12-20T07:40:02;5.80;99.90
21592;DHT22;10958;50.892;3.992;2023-12-20T07:42:28;5.80;99.90
21592;DHT22;10958;50.892;3.992;2023-12-20T07:44:56;5.90;99.90
21592;DHT22;10958;50.892;3.992;2023-12-20T07:47:24;6.00;99.90
21592;DHT22;10958;50.892;3.992;2023-12-20T07:49:51;5.90;99.90
21592;DHT22;10958;50.892;3.992;2023-12-20T07:52:19;5.90;99.90
21592;DHT22;10958;50.892;3.992;2023-12-20T07:54:45;5.90;99.90
21592;DHT22;10958;50.892;3.992;2023-12-20T07:57:11;5.90;99.90
21592;DHT22;10958;50.892;3.992;2023-12-20T07:59:37;5.90;99.90
21592;DHT22;10958;50.892;3.992;2023-12-20T08:02:03;5.90;99.90
21592;DHT22;10958;50.892;3.992;2023-12-20T08:04:29;5.90;99.90
21592;DHT22;10958;50.892;3.992;2023-12-20T08:06:55;5.90;99.90
21592;DHT22;10958;50.892;3.992;2023-12-20T08:09:21;6.00;99.90
21592;DHT22;10958;50.892;3.992;2023-12-20T08:11:49;5.90;99.90
21592;DHT22;10958;50.892;3.992;2023-12-20T08:14:16;5.80;99.90
21592;DHT22;10958;50.892;3.992;2023-12-20T08:16:41;5.90;99.90
21592;DHT22;10958;50.892;3.992;2023-12-20T08:19:09;5.90;99.90
21592;DHT22;10958;50.892;3.992;2023-12-20T08:21:37;5.90;99.90
21592;DHT22;10958;50.892;3.992;2023-12-20T08:24:03;5.90;99.90
21592;DHT22;10958;50.892;3.992;2023-12-20T08:26:29;5.90;99.90
21592;DHT22;10958;50.892;3.992;2023-12-20T08:28:55;6.00;99.90
21592;DHT22;10958;50.892;3.992;2023-12-20T08:31:20;6.00;99.90
21592;DHT22;10958;50.892;3.992;2023-12-20T08:33:49;5.90;99.90
21592;DHT22;10958;50.892;3.992;2023-12-20T08:36:15;6.00;99.90
21592;DHT22;10958;50.892;3.992;2023-12-20T08:38:43;6.10;99.90
21592;DHT22;10958;50.892;3.992;2023-12-20T08:41:08;6.20;99.90
21592;DHT22;10958;50.892;3.992;2023-12-20T08:43:39;6.20;99.90
21592;DHT22;10958;50.892;3.992;2023-12-20T08:46:08;6.20;99.90
21592;DHT22;10958;50.892;3.992;2023-12-20T08:48:37;6.20;99.90
21592;DHT22;10958;50.892;3.992;2023-12-20T08:51:04;6.30;99.90
21592;DHT22;10958;50.892;3.992;2023-12-20T08:53:30;6.30;99.90
21592;DHT22;10958;50.892;3.992;2023-12-20T08:55:55;6.50;99.90
21592;DHT22;10958;50.892;3.992;2023-12-20T08:58:23;6.60;99.90
21592;DHT22;10958;50.892;3.992;2023-12-20T09:00:49;6.80;99.90
21592;DHT22;10958;50.892;3.992;2023-12-20T09:03:17;7.00;99.90
21592;DHT22;10958;50.892;3.992;2023-12-20T09:05:45;7.10;99.90
21592;DHT22;10958;50.892;3.992;2023-12-20T09:08:10;7.20;99.90
21592;DHT22;10958;50.892;3.992;2023-12-20T09:10:37;7.40;99.90
21592;DHT22;10958;50.892;3.992;2023-12-20T09:13:03;7.60;99.90
21592;DHT22;10958;50.892;3.992;2023-12-20T09:15:31;7.70;99.90
21592;DHT22;10958;50.892;3.992;2023-12-20T09:17:59;7.90;99.90
21592;DHT22;10958;50.892;3.992;2023-12-20T09:20:25;7.90;99.90
21592;DHT22;10958;50.892;3.992;2023-12-20T09:22:51;7.90;99.90
21592;DHT22;10958;50.892;3.992;2023-12-20T09:25:16;8.00;99.90
21592;DHT22;10958;50.892;3.992;2023-12-20T09:27:43;8.20;99.90
21592;DHT22;10958;50.892;3.992;2023-12-20T09:30:09;8.30;99.90
21592;DHT22;10958;50.892;3.992;2023-12-20T09:32:35;8.20;99.90
21592;DHT22;10958;50.892;3.992;2023-12-20T09:35:04;8.10;99.90
21592;DHT22;10958;50.892;3.992;2023-12-20T09:37:31;7.90;99.90
21592;DHT22;10958;50.892;3.992;2023-12-20T09:39:57;7.80;99.90
21592;DHT22;10958;50.892;3.992;2023-12-20T09:43:03;7.80;99.90
21592;DHT22;10958;50.892;3.992;2023-12-20T09:45:24;7.70;99.90
21592;DHT22;10958;50.892;3.992;2023-12-20T09:47:51;7.70;99.90
21592;DHT22;10958;50.892;3.992;2023-12-20T09:50:22;7.70;99.90
21592;DHT22;10958;50.892;3.992;2023-12-20T09:52:52;7.70;99.90
21592;DHT22;10958;50.892;3.992;2023-12-20T09:55:19;7.60;99.90
21592;DHT22;10958;50.892;3.992;2023-12-20T09:57:48;7.60;99.90
21592;DHT22;10958;50.892;3.992;2023-12-20T10:00:15;7.70;99.90
21592;DHT22;10958;50.892;3.992;2023-12-20T10:02:57;7.70;99.90
21592;DHT22;10958;50.892;3.992;2023-12-20T10:05:28;7.80;99.90
21592;DHT22;10958;50.892;3.992;2023-12-20T10:07:56;7.70;99.90
21592;DHT22;10958;50.892;3.992;2023-12-20T10:10:24;7.70;99.90
21592;DHT22;10958;50.892;3.992;2023-12-20T10:13:06;7.70;99.90
21592;DHT22;10958;50.892;3.992;2023-12-20T10:15:36;7.80;99.90
21592;DHT22;10958;50.892;3.992;2023-12-20T10:18:03;7.90;99.90
21592;DHT22;10958;50.892;3.992;2023-12-20T10:20:32;7.80;99.90
21592;DHT22;10958;50.892;3.992;2023-12-20T10:22:59;7.90;99.90
21592;DHT22;10958;50.892;3.992;2023-12-20T10:25:25;7.90;99.90
21592;DHT22;10958;50.892;3.992;2023-12-20T10:28:11;7.90;99.90
21592;DHT22;10958;50.892;3.992;2023-12-20T10:30:38;7.90;99.90
21592;DHT22;10958;50.892;3.992;2023-12-20T10:33:06;7.90;99.90
21592;DHT22;10958;50.892;3.992;2023-12-20T10:35:33;8.10;99.90
21592;DHT22;10958;50.892;3.992;2023-12-20T10:38:03;8.20;99.90
21592;DHT22;10958;50.892;3.992;2023-12-20T10:40:29;8.20;99.90
21592;DHT22;10958;50.892;3.992;2023-12-20T10:42:56;8.20;99.90
21592;DHT22;10958;50.892;3.992;2023-12-20T10:45:22;8.30;99.90
21592;DHT22;10958;50.892;3.992;2023-12-20T10:47:49;8.30;99.90
21592;DHT22;10958;50.892;3.992;2023-12-20T10:50:15;8.30;99.90
21592;DHT22;10958;50.892;3.992;2023-12-20T10:52:42;8.30;99.90
21592;DHT22;10958;50.892;3.992;2023-12-20T10:55:12;8.30;99.90
21592;DHT22;10958;50.892;3.992;2023-12-20T10:57:38;8.30;99.90
21592;DHT22;10958;50.892;3.992;2023-12-20T11:03:35;8.30;99.90
21592;DHT22;10958;50.892;3.992;2023-12-20T11:06:09;8.40;99.90
21592;DHT22;10958;50.892;3.992;2023-12-20T11:14:08;8.20;99.90
21592;DHT22;10958;50.892;3.992;2023-12-20T11:16:37;8.30;99.90
21592;DHT22;10958;50.892;3.992;2023-12-20T11:19:05;8.40;99.90
21592;DHT22;10958;50.892;3.992;2023-12-20T11:21:31;8.50;99.90
21592;DHT22;10958;50.892;3.992;2023-12-20T11:23:57;8.60;99.90
21592;DHT22;10958;50.892;3.992;2023-12-20T11:26:27;8.60;99.90
21592;DHT22;10958;50.892;3.992;2023-12-20T11:28:56;8.60;99.90
21592;DHT22;10958;50.892;3.992;2023-12-20T11:31:42;8.60;99.90
21592;DHT22;10958;50.892;3.992;2023-12-20T11:34:16;8.60;99.90
21592;DHT22;10958;50.892;3.992;2023-12-20T11:36:42;8.60;99.90
21592;DHT22;10958;50.892;3.992;2023-12-20T11:39:08;8.70;99.90
21592;DHT22;10958;50.892;3.992;2023-12-20T11:41:36;8.60;99.90
21592;DHT22;10958;50.892;3.992;2023-12-20T11:44:04;8.60;99.90
21592;DHT22;10958;50.892;3.992;2023-12-20T11:46:31;8.70;99.90
21592;DHT22;10958;50.892;3.992;2023-12-20T11:48:57;8.70;99.90
21592;DHT22;10958;50.892;3.992;2023-12-20T11:51:23;8.70;99.90
21592;DHT22;10958;50.892;3.992;2023-12-20T11:53:51;8.70;99.90
21592;DHT22;10958;50.892;3.992;2023-12-20T11:56:18;8.80;99.90
21592;DHT22;10958;50.892;3.992;2023-12-20T11:58:44;8.80;99.90
21592;DHT22;10958;50.892;3.992;2023-12-20T12:01:10;8.80;99.90
21592;DHT22;10958;50.892;3.992;2023-12-20T12:03:36;8.90;99.90
21592;DHT22;10958;50.892;3.992;2023-12-20T12:06:04;9.00;99.90
21592;DHT22;10958;50.892;3.992;2023-12-20T12:08:30;9.10;99.90
21592;DHT22;10958;50.892;3.992;2023-12-20T12:10:56;9.10;99.90
21592;DHT22;10958;50.892;3.992;2023-12-20T12:13:22;9.10;99.90
21592;DHT22;10958;50.892;3.992;2023-12-20T12:15:48;9.10;99.90
21592;DHT22;10958;50.892;3.992;2023-12-20T12:18:17;9.10;99.90
21592;DHT22;10958;50.892;3.992;2023-12-20T12:20:43;9.10;99.90
21592;DHT22;10958;50.892;3.992;2023-12-20T12:23:09;9.20;99.90
21592;DHT22;10958;50.892;3.992;2023-12-20T12:25:37;9.20;99.90
21592;DHT22;10958;50.892;3.992;2023-12-20T12:28:03;9.20;99.90
21592;DHT22;10958;50.892;3.992;2023-12-20T12:30:29;9.10;99.90
21592;DHT22;10958;50.892;3.992;2023-12-20T12:32:56;9.00;99.90
21592;DHT22;10958;50.892;3.992;2023-12-20T12:35:24;8.90;99.90
21592;DHT22;10958;50.892;3.992;2023-12-20T12:37:51;9.00;99.90
21592;DHT22;10958;50.892;3.992;2023-12-20T12:40:20;9.00;99.90
21592;DHT22;10958;50.892;3.992;2023-12-20T12:42:45;9.00;99.90
21592;DHT22;10958;50.892;3.992;2023-12-20T12:45:11;9.00;99.90
21592;DHT22;10958;50.892;3.992;2023-12-20T12:47:37;9.10;99.90
21592;DHT22;10958;50.892;3.992;2023-12-20T12:50:03;9.10;99.90
21592;DHT22;10958;50.892;3.992;2023-12-20T12:52:30;9.10;99.90
21592;DHT22;10958;50.892;3.992;2023-12-20T12:54:56;9.20;99.90
21592;DHT22;10958;50.892;3.992;2023-12-20T12:57:22;9.20;99.90
21592;DHT22;10958;50.892;3.992;2023-12-20T12:59:47;9.30;99.90
21592;DHT22;10958;50.892;3.992;2023-12-20T13:02:13;9.40;99.90
21592;DHT22;10958;50.892;3.992;2023-12-20T13:04:42;9.50;99.90
21592;DHT22;10958;50.892;3.992;2023-12-20T13:07:11;9.50;99.90
21592;DHT22;10958;50.892;3.992;2023-12-20T13:09:38;9.60;99.90
21592;DHT22;10958;50.892;3.992;2023-12-20T13:12:07;9.70;99.90
21592;DHT22;10958;50.892;3.992;2023-12-20T13:14:33;9.80;99.90
21592;DHT22;10958;50.892;3.992;2023-12-20T13:17:00;9.90;99.90
21592;DHT22;10958;50.892;3.992;2023-12-20T13:19:25;9.80;99.90
21592;DHT22;10958;50.892;3.992;2023-12-20T13:21:51;9.90;99.90
21592;DHT22;10958;50.892;3.992;2023-12-20T13:24:17;9.80;99.90
21592;DHT22;10958;50.892;3.992;2023-12-20T13:26:44;9.80;99.90
21592;DHT22;10958;50.892;3.992;2023-12-20T13:29:09;9.80;99.90
21592;DHT22;10958;50.892;3.992;2023-12-20T13:31:38;9.90;99.90
21592;DHT22;10958;50.892;3.992;2023-12-20T13:34:06;9.90;99.90
21592;DHT22;10958;50.892;3.992;2023-12-20T13:36:31;9.80;99.90
21592;DHT22;10958;50.892;3.992;2023-12-20T13:38:57;9.80;99.90
21592;DHT22;10958;50.892;3.992;2023-12-20T13:41:25;9.80;99.90
21592;DHT22;10958;50.892;3.992;2023-12-20T13:43:51;9.80;99.90
21592;DHT22;10958;50.892;3.992;2023-12-20T13:46:16;9.80;99.90
21592;DHT22;10958;50.892;3.992;2023-12-20T13:48:42;9.70;99.90
21592;DHT22;10958;50.892;3.992;2023-12-20T13:51:08;9.80;99.90
21592;DHT22;10958;50.892;3.992;2023-12-20T13:53:36;9.80;99.90
21592;DHT22;10958;50.892;3.992;2023-12-20T13:56:01;9.90;99.90
21592;DHT22;10958;50.892;3.992;2023-12-20T13:58:27;9.90;99.90
21592;DHT22;10958;50.892;3.992;2023-12-20T14:00:53;9.80;99.90
21592;DHT22;10958;50.892;3.992;2023-12-20T14:03:18;9.80;99.90
21592;DHT22;10958;50.892;3.992;2023-12-20T14:05:46;9.80;99.90
21592;DHT22;10958;50.892;3.992;2023-12-20T14:08:12;9.80;99.90
21592;DHT22;10958;50.892;3.992;2023-12-20T14:10:37;9.80;99.90
21592;DHT22;10958;50.892;3.992;2023-12-20T14:13:04;9.80;99.90
21592;DHT22;10958;50.892;3.992;2023-12-20T14:15:30;9.80;99.90
21592;DHT22;10958;50.892;3.992;2023-12-20T14:18:05;9.80;99.90
21592;DHT22;10958;50.892;3.992;2023-12-20T14:20:34;9.80;99.90
21592;DHT22;10958;50.892;3.992;2023-12-20T14:23:03;9.70;99.90
21592;DHT22;10958;50.892;3.992;2023-12-20T14:25:29;9.70;99.90
21592;DHT22;10958;50.892;3.992;2023-12-20T14:27:55;9.70;99.90
21592;DHT22;10958;50.892;3.992;2023-12-20T14:30:21;9.60;99.90
21592;DHT22;10958;50.892;3.992;2023-12-20T14:32:46;9.70;99.90
21592;DHT22;10958;50.892;3.992;2023-12-20T14:35:13;9.60;99.90
21592;DHT22;10958;50.892;3.992;2023-12-20T14:37:41;9.60;99.90
21592;DHT22;10958;50.892;3.992;2023-12-20T14:40:08;9.70;99.90
21592;DHT22;10958;50.892;3.992;2023-12-20T14:42:41;9.60;99.90
21592;DHT22;10958;50.892;3.992;2023-12-20T14:45:07;9.70;99.90
21592;DHT22;10958;50.892;3.992;2023-12-20T14:47:35;9.70;99.90
21592;DHT22;10958;50.892;3.992;2023-12-20T14:50:04;9.70;99.90
21592;DHT22;10958;50.892;3.992;2023-12-20T14:52:33;9.80;99.90
21592;DHT22;10958;50.892;3.992;2023-12-20T14:55:02;9.60;99.90
21592;DHT22;10958;50.892;3.992;2023-12-20T14:57:28;9.60;99.90
21592;DHT22;10958;50.892;3.992;2023-12-20T14:59:55;9.60;99.90
21592;DHT22;10958;50.892;3.992;2023-12-20T15:02:21;9.70;99.90
21592;DHT22;10958;50.892;3.992;2023-12-20T15:04:48;9.70;99.90
21592;DHT22;10958;50.892;3.992;2023-12-20T15:07:15;9.60;99.90
21592;DHT22;10958;50.892;3.992;2023-12-20T15:09:42;9.60;99.90
21592;DHT22;10958;50.892;3.992;2023-12-20T15:12:13;9.70;99.90
21592;DHT22;10958;50.892;3.992;2023-12-20T15:14:39;9.60;99.90
21592;DHT22;10958;50.892;3.992;2023-12-20T15:17:05;9.70;99.90
21592;DHT22;10958;50.892;3.992;2023-12-20T15:19:33;9.70;99.90
21592;DHT22;10958;50.892;3.992;2023-12-20T15:21:58;9.60;99.90
21592;DHT22;10958;50.892;3.992;2023-12-20T15:24:25;9.70;99.90
21592;DHT22;10958;50.892;3.992;2023-12-20T15:27:03;9.80;99.90
21592;DHT22;10958;50.892;3.992;2023-12-20T15:29:29;9.70;99.90
21592;DHT22;10958;50.892;3.992;2023-12-20T15:31:56;9.70;99.90
21592;DHT22;10958;50.892;3.992;2023-12-20T15:34:22;9.70;99.90
21592;DHT22;10958;50.892;3.992;2023-12-20T15:36:48;9.60;99.90
21592;DHT22;10958;50.892;3.992;2023-12-20T15:39:13;9.70;99.90
21592;DHT22;10958;50.892;3.992;2023-12-20T15:41:42;9.70;99.90
21592;DHT22;10958;50.892;3.992;2023-12-20T15:44:08;9.80;99.90
21592;DHT22;10958;50.892;3.992;2023-12-20T15:46:34;9.80;99.90
21592;DHT22;10958;50.892;3.992;2023-12-20T15:49:00;9.90;99.90
21592;DHT22;10958;50.892;3.992;2023-12-20T15:51:26;9.80;99.90